Time;durP1;ratioP1;P1;durP2;ratioP2;P2;SDS_P1;SDS_P2;PMS_P1;PMS_P2;Temp;Humidity;BMP_temperature;BMP_pressure;BME280_temperature;BME280_humidity;BME280_pressure;Samples;Min_cycle;Max_cycle;Signal;HPM_P1;HPM_P2
2023/06/09 00:00:11;;;;;;;30.60;22.35;;;15.10;99.90;;;;;;5116554;28;20422;-62
2023/06/09 00:02:38;;;;;;;45.20;23.80;;;15.10;99.90;;;;;;5114639;28;20070;-62
2023/06/09 00:05:04;;;;;;;40.83;22.77;;;15.10;99.90;;;;;;5115268;28;20035;-62
2023/06/09 00:07:33;;;;;;;34.08;22.70;;;15.00;99.90;;;;;;5115009;28;20476;-61
2023/06/09 00:09:59;;;;;;;37.45;22.27;;;15.00;99.90;;;;;;5116148;28;20051;-62
2023/06/09 00:12:25;;;;;;;37.90;21.40;;;15.00;99.90;;;;;;5116155;28;20477;-62
2023/06/09 00:14:51;;;;;;;30.63;19.98;;;15.00;99.90;;;;;;5116198;28;20032;-62
2023/06/09 00:17:18;;;;;;;35.38;19.52;;;15.10;99.90;;;;;;5116238;28;20028;-61
2023/06/09 00:19:43;;;;;;;30.13;20.02;;;15.10;99.90;;;;;;5116129;28;20461;-62
2023/06/09 00:22:13;;;;;;;29.40;19.30;;;15.20;99.90;;;;;;5115977;28;20037;-62
2023/06/09 00:24:39;;;;;;;27.08;19.23;;;15.10;99.90;;;;;;5115992;28;20035;-62
2023/06/09 00:27:07;;;;;;;24.63;18.67;;;15.10;99.90;;;;;;5115976;28;20138;-62
2023/06/09 00:29:32;;;;;;;30.48;19.52;;;15.10;99.90;;;;;;5115942;28;20028;-61
2023/06/09 00:31:58;;;;;;;29.67;19.17;;;15.00;99.90;;;;;;5113872;28;20032;-62
2023/06/09 00:34:24;;;;;;;34.10;20.10;;;15.00;99.90;;;;;;5115951;28;20024;-62
2023/06/09 00:36:51;;;;;;;38.88;19.88;;;14.80;99.90;;;;;;5114309;28;20498;-62
2023/06/09 00:39:19;;;;;;;29.17;20.52;;;14.80;99.90;;;;;;5114368;28;20031;-62
2023/06/09 00:41:45;;;;;;;35.30;20.45;;;14.70;99.90;;;;;;5080588;28;20088;-61
2023/06/09 00:44:12;;;;;;;26.38;19.02;;;14.70;99.90;;;;;;5114141;28;20110;-62
2023/06/09 00:46:39;;;;;;;30.55;19.10;;;14.70;99.90;;;;;;5115431;28;20016;-62
2023/06/09 00:49:06;;;;;;;32.15;20.50;;;14.80;99.90;;;;;;5114337;28;20027;-62
2023/06/09 00:51:36;;;;;;;31.33;19.45;;;15.00;99.90;;;;;;5115536;28;20102;-62
2023/06/09 00:54:03;;;;;;;34.95;18.55;;;14.90;99.90;;;;;;5114205;28;20019;-62
2023/06/09 00:56:31;;;;;;;28.13;18.25;;;14.80;99.90;;;;;;5114248;28;20027;-62
2023/06/09 00:58:58;;;;;;;26.48;16.95;;;14.70;99.90;;;;;;5113972;28;20031;-62
2023/06/09 01:01:24;;;;;;;25.35;16.08;;;14.70;99.90;;;;;;5097102;28;20038;-62
2023/06/09 01:03:50;;;;;;;28.08;16.50;;;14.60;99.90;;;;;;5114006;28;20401;-62
2023/06/09 01:06:26;;;;;;;21.25;15.43;;;14.60;99.90;;;;;;5115185;28;20118;-61
2023/06/09 01:09:02;;;;;;;25.98;16.25;;;14.60;99.90;;;;;;5113934;28;20035;-62
2023/06/09 01:12:02;;;;;;;29.60;16.27;;;14.70;99.90;;;;;;5113777;28;20412;-62
2023/06/09 01:14:36;;;;;;;28.42;16.45;;;14.70;99.90;;;;;;5096824;28;20028;-62
2023/06/09 01:17:16;;;;;;;29.75;17.25;;;14.70;99.90;;;;;;5113982;28;20028;-62
2023/06/09 01:19:46;;;;;;;32.37;17.47;;;14.70;99.90;;;;;;5115105;28;20028;-62
2023/06/09 01:22:25;;;;;;;37.20;18.30;;;14.70;99.90;;;;;;5115155;28;20066;-62
2023/06/09 01:25:23;;;;;;;31.08;18.95;;;14.70;99.90;;;;;;5115085;28;20034;-61
2023/06/09 01:27:52;;;;;;;30.63;17.20;;;14.70;99.90;;;;;;5114840;28;20042;-61
2023/06/09 01:30:20;;;;;;;33.10;19.00;;;14.80;99.90;;;;;;5113623;28;20020;-61
2023/06/09 01:32:49;;;;;;;32.25;21.60;;;14.70;99.90;;;;;;5115053;28;20063;-61
2023/06/09 01:35:15;;;;;;;39.45;21.02;;;14.70;99.90;;;;;;5114740;28;20024;-61
2023/06/09 01:37:41;;;;;;;41.38;21.38;;;14.80;99.90;;;;;;5113597;28;20107;-62
2023/06/09 01:40:08;;;;;;;46.78;21.65;;;14.80;99.90;;;;;;5096632;28;20069;-62
2023/06/09 01:42:35;;;;;;;37.67;21.20;;;14.90;99.90;;;;;;5113344;28;20028;-61
2023/06/09 01:45:01;;;;;;;41.38;21.40;;;14.90;99.90;;;;;;5117583;28;20043;-61
2023/06/09 01:47:27;;;;;;;29.65;20.13;;;14.90;99.90;;;;;;5118907;28;20456;-61
2023/06/09 01:50:09;;;;;;;29.08;18.77;;;15.00;99.90;;;;;;5118797;28;20028;-61
2023/06/09 01:52:41;;;;;;;37.90;18.85;;;15.00;99.90;;;;;;5100406;28;20040;-61
2023/06/09 01:55:24;;;;;;;27.00;19.08;;;15.00;99.90;;;;;;5118783;28;20518;-61
2023/06/09 01:57:50;;;;;;;34.80;19.80;;;15.00;99.90;;;;;;5100452;28;20027;-62
2023/06/09 02:00:16;;;;;;;36.35;21.00;;;15.10;99.90;;;;;;5117549;28;20042;-62
2023/06/09 02:02:46;;;;;;;36.17;22.85;;;15.20;99.90;;;;;;5119016;28;20425;-62
2023/06/09 02:05:15;;;;;;;35.92;21.85;;;15.10;99.90;;;;;;5100656;28;20034;-62
2023/06/09 02:07:44;;;;;;;39.35;21.88;;;15.20;99.90;;;;;;5117443;28;20032;-62
2023/06/09 02:10:11;;;;;;;43.50;23.10;;;15.30;99.90;;;;;;5117065;28;20024;-62
2023/06/09 02:12:37;;;;;;;37.28;23.90;;;15.30;99.90;;;;;;5117106;28;20028;-62
2023/06/09 02:15:05;;;;;;;48.00;25.10;;;15.30;99.90;;;;;;5118491;28;20065;-62
2023/06/09 02:17:33;;;;;;;43.30;26.05;;;15.30;99.90;;;;;;5100048;28;20032;-62
2023/06/09 02:19:59;;;;;;;49.83;26.02;;;15.20;99.90;;;;;;5117366;28;20038;-62
2023/06/09 02:22:26;;;;;;;60.60;29.05;;;15.20;99.90;;;;;;5118379;28;20043;-62
2023/06/09 02:24:52;;;;;;;64.35;28.10;;;15.30;99.90;;;;;;5118165;28;20370;-62
2023/06/09 02:27:18;;;;;;;80.70;28.83;;;15.40;99.90;;;;;;5118217;28;20524;-61
2023/06/09 02:29:45;;;;;;;54.08;26.25;;;15.20;99.90;;;;;;5117009;28;20488;-62
2023/06/09 02:32:11;;;;;;;52.00;26.33;;;15.20;99.90;;;;;;5116980;28;20027;-62
2023/06/09 02:34:37;;;;;;;56.20;27.10;;;15.20;99.90;;;;;;5117759;28;20035;-62
2023/06/09 02:37:07;;;;;;;60.33;26.90;;;15.30;99.90;;;;;;5099717;28;20554;-62
2023/06/09 02:39:34;;;;;;;64.22;28.23;;;15.30;99.90;;;;;;5099605;28;20028;-62
2023/06/09 02:42:02;;;;;;;73.53;28.92;;;15.40;99.90;;;;;;5099946;28;20040;-62
2023/06/09 02:44:31;;;;;;;57.67;29.08;;;15.50;99.90;;;;;;5116715;28;20127;-62
2023/06/09 02:46:59;;;;;;;51.58;26.73;;;15.50;99.90;;;;;;5099509;28;20077;-62
2023/06/09 02:49:26;;;;;;;48.63;25.95;;;15.50;99.90;;;;;;5117708;28;20031;-61
2023/06/09 02:51:53;;;;;;;47.80;24.52;;;15.60;99.90;;;;;;5116333;28;20507;-62
2023/06/09 02:54:20;;;;;;;53.80;25.65;;;15.60;99.90;;;;;;5117680;28;20084;-62
2023/06/09 02:56:47;;;;;;;58.92;25.63;;;15.60;99.90;;;;;;5098923;28;20034;-62
2023/06/09 02:59:13;;;;;;;60.22;26.90;;;15.60;99.90;;;;;;5116413;28;20028;-62
2023/06/09 03:01:42;;;;;;;57.63;26.40;;;15.60;99.90;;;;;;5116249;28;20161;-62
2023/06/09 03:04:09;;;;;;;52.60;25.38;;;15.50;99.90;;;;;;5099350;28;20035;-62
2023/06/09 03:06:43;;;;;;;65.03;27.10;;;15.50;99.90;;;;;;5099678;28;20439;-62
2023/06/09 03:09:12;;;;;;;66.88;29.38;;;15.50;99.90;;;;;;5116066;28;20035;-62
2023/06/09 03:11:40;;;;;;;62.67;26.75;;;15.40;99.90;;;;;;5116113;28;20024;-62
2023/06/09 03:14:07;;;;;;;69.95;27.85;;;15.40;99.90;;;;;;5115940;28;20429;-62
2023/06/09 03:16:33;;;;;;;63.17;28.17;;;15.40;99.90;;;;;;5116057;28;20100;-62
2023/06/09 03:19:00;;;;;;;68.88;29.58;;;15.40;99.90;;;;;;5116011;28;20031;-62
2023/06/09 03:21:26;;;;;;;69.72;30.40;;;15.60;99.90;;;;;;5099051;28;20027;-62
2023/06/09 03:23:54;;;;;;;73.30;28.70;;;15.70;99.90;;;;;;5115898;28;20028;-62
2023/06/09 03:26:20;;;;;;;100.28;29.15;;;15.60;99.90;;;;;;5115838;28;20123;-62
2023/06/09 03:28:46;;;;;;;71.75;30.70;;;15.40;99.90;;;;;;5115499;28;20094;-62
2023/06/09 03:31:14;;;;;;;82.45;29.60;;;15.40;99.90;;;;;;5099164;28;20430;-62
2023/06/09 03:33:42;;;;;;;72.60;29.05;;;15.60;99.90;;;;;;5115848;28;20503;-62
2023/06/09 03:36:08;;;;;;;73.43;29.38;;;15.60;99.90;;;;;;5115310;28;20085;-62
2023/06/09 03:38:35;;;;;;;73.35;29.75;;;15.70;99.90;;;;;;5115536;28;20100;-62
2023/06/09 03:41:03;;;;;;;67.53;28.10;;;15.80;99.90;;;;;;5115635;28;20024;-62
2023/06/09 03:43:29;;;;;;;70.97;28.88;;;15.90;99.90;;;;;;5116773;28;20214;-62
2023/06/09 03:45:55;;;;;;;78.53;30.33;;;15.90;99.90;;;;;;5098526;28;20123;-62
2023/06/09 03:48:21;;;;;;;75.97;29.52;;;15.70;99.90;;;;;;5115258;28;20365;-61
2023/06/09 03:50:49;;;;;;;78.10;29.63;;;15.60;99.90;;;;;;5098449;28;20016;-62
2023/06/09 03:53:16;;;;;;;81.65;29.50;;;15.60;99.90;;;;;;5115506;28;20077;-62
2023/06/09 03:55:42;;;;;;;85.18;31.85;;;15.60;99.90;;;;;;5116711;28;20032;-62
2023/06/09 03:58:10;;;;;;;80.63;30.98;;;15.50;99.90;;;;;;5114991;28;20396;-62
2023/06/09 04:00:36;;;;;;;109.88;34.03;;;15.50;99.90;;;;;;5115217;28;20078;-62
2023/06/09 04:03:03;;;;;;;104.18;34.40;;;15.50;99.90;;;;;;5115090;28;20024;-62
2023/06/09 04:05:29;;;;;;;114.03;36.05;;;15.40;99.90;;;;;;5097896;28;20035;-62
2023/06/09 04:07:55;;;;;;;112.72;35.28;;;15.20;99.90;;;;;;5096822;28;20035;-62
2023/06/09 04:10:21;;;;;;;131.05;38.53;;;15.10;99.90;;;;;;5114881;28;20027;-62
2023/06/09 04:12:48;;;;;;;121.63;38.70;;;15.20;99.90;;;;;;5114739;28;20114;-62
2023/06/09 04:15:16;;;;;;;131.63;38.80;;;15.40;99.90;;;;;;5115077;28;20023;-62
2023/06/09 04:17:45;;;;;;;115.45;37.30;;;15.30;99.90;;;;;;5098189;28;20035;-62
2023/06/09 04:20:12;;;;;;;115.03;37.53;;;15.40;99.90;;;;;;5097781;28;20093;-62
2023/06/09 04:22:51;;;;;;;111.73;36.70;;;15.50;99.90;;;;;;5114768;28;20509;-62
2023/06/09 04:25:27;;;;;;;126.88;38.15;;;15.60;99.90;;;;;;5114502;28;20118;-62
2023/06/09 04:27:56;;;;;;;126.95;38.08;;;15.70;99.90;;;;;;5114619;28;20028;-62
2023/06/09 04:30:25;;;;;;;147.82;38.30;;;15.80;99.90;;;;;;5097578;28;20028;-62
2023/06/09 04:32:58;;;;;;;146.90;40.50;;;15.80;99.90;;;;;;5114430;28;20054;-62
2023/06/09 04:35:24;;;;;;;129.98;39.47;;;15.80;99.90;;;;;;5097368;28;20119;-62
2023/06/09 04:37:51;;;;;;;121.95;37.70;;;15.90;99.90;;;;;;5097386;28;20055;-62
2023/06/09 04:40:25;;;;;;;121.50;36.80;;;15.90;99.90;;;;;;5115622;28;20373;-62
2023/06/09 04:42:55;;;;;;;113.78;38.95;;;15.90;99.90;;;;;;5114378;28;20138;-62
2023/06/09 04:45:33;;;;;;;132.23;39.13;;;15.90;99.90;;;;;;5097748;28;20039;-61
2023/06/09 04:48:05;;;;;;;131.63;38.42;;;16.00;99.90;;;;;;5113953;28;20034;-62
2023/06/09 04:50:33;;;;;;;144.13;40.30;;;15.90;99.90;;;;;;5114271;28;20384;-61
2023/06/09 04:53:03;;;;;;;145.98;39.85;;;15.80;99.90;;;;;;5114306;28;20380;-61
2023/06/09 04:55:32;;;;;;;142.48;39.67;;;15.70;99.90;;;;;;5097913;28;20089;-62
2023/06/09 04:57:59;;;;;;;141.95;41.40;;;15.90;99.90;;;;;;5114193;28;20077;-62
2023/06/09 05:00:27;;;;;;;164.65;45.03;;;15.90;99.90;;;;;;5114034;28;20023;-62
2023/06/09 05:02:59;;;;;;;149.25;45.90;;;15.90;99.90;;;;;;5097347;28;20061;-61
2023/06/09 05:05:26;;;;;;;;;;;16.00;99.90;;;;;;5115836;28;20111;-62
2023/06/09 05:07:53;;;;;;;214.57;52.85;;;16.00;99.90;;;;;;5115233;28;19911;-62
2023/06/09 05:10:21;;;;;;;213.48;52.13;;;16.10;99.90;;;;;;5113722;28;20028;-61
2023/06/09 05:12:48;;;;;;;228.52;55.33;;;16.20;99.90;;;;;;5113908;28;20080;-61
2023/06/09 05:15:13;;;;;;;242.07;57.90;;;16.20;99.90;;;;;;5113531;28;20030;-61
2023/06/09 05:17:42;;;;;;;237.85;61.95;;;16.20;99.90;;;;;;5113497;28;20038;-61
2023/06/09 05:20:10;;;;;;;239.20;57.50;;;16.30;99.90;;;;;;5113933;28;20023;-61
2023/06/09 05:22:37;;;;;;;282.42;65.53;;;16.40;99.90;;;;;;5113391;28;20028;-61
2023/06/09 05:25:04;;;;;;;274.85;64.43;;;16.40;99.90;;;;;;5113505;28;20027;-61
2023/06/09 05:27:30;;;;;;;277.70;70.90;;;16.60;99.90;;;;;;5115361;28;20059;-61
2023/06/09 05:29:57;;;;;;;299.23;72.20;;;16.60;99.90;;;;;;5113401;28;20499;-61
2023/06/09 05:32:24;;;;;;;297.95;74.15;;;16.40;99.90;;;;;;5131493;27;20377;-61
2023/06/09 05:34:52;;;;;;;278.13;70.40;;;16.40;99.90;;;;;;5079290;28;20051;-61
2023/06/09 05:37:18;;;;;;;299.20;78.82;;;16.50;99.90;;;;;;5111015;28;20078;-61
2023/06/09 05:39:46;;;;;;;306.88;76.65;;;16.40;99.90;;;;;;5113452;28;20085;-61
2023/06/09 05:42:13;;;;;;;321.30;81.65;;;16.60;99.90;;;;;;5113449;28;20036;-61
2023/06/09 05:44:39;;;;;;;333.77;82.85;;;16.50;99.90;;;;;;5113681;28;20063;-61
2023/06/09 05:47:05;;;;;;;305.85;82.20;;;16.70;99.90;;;;;;5092070;28;20060;-60
2023/06/09 05:49:31;;;;;;;312.42;83.22;;;16.70;99.90;;;;;;5109794;28;20027;-61
2023/06/09 05:51:57;;;;;;;295.83;79.28;;;16.80;99.90;;;;;;5113279;28;20031;-61
2023/06/09 05:54:24;;;;;;;298.73;77.90;;;16.90;99.90;;;;;;5114337;28;20035;-61
2023/06/09 05:56:51;;;;;;;305.08;84.22;;;17.10;99.90;;;;;;5114520;28;20054;-61
2023/06/09 05:59:20;;;;;;;278.55;80.70;;;17.20;99.90;;;;;;5114274;28;20028;-61
2023/06/09 06:01:50;;;;;;;276.90;81.05;;;17.30;99.90;;;;;;5113290;28;20036;-61
2023/06/09 06:04:17;;;;;;;264.98;75.43;;;17.40;99.90;;;;;;5112711;28;20062;-61
2023/06/09 06:06:43;;;;;;;267.55;74.95;;;17.30;99.90;;;;;;5110383;28;20032;-61
2023/06/09 06:09:09;;;;;;;268.60;76.13;;;17.40;99.90;;;;;;5093732;28;20028;-61
2023/06/09 06:11:35;;;;;;;272.92;75.03;;;17.40;99.90;;;;;;5093776;28;20761;-61
2023/06/09 06:14:01;;;;;;;240.00;71.18;;;17.40;99.90;;;;;;5112142;28;20036;-61
2023/06/09 06:16:30;;;;;;;239.35;69.80;;;17.40;99.90;;;;;;5112267;28;20021;-62
2023/06/09 06:18:56;;;;;;;235.18;67.18;;;17.40;99.90;;;;;;5097066;28;20693;-61
2023/06/09 06:21:22;;;;;;;220.85;65.63;;;17.50;99.90;;;;;;5105892;28;20692;-61
2023/06/09 06:23:47;;;;;;;198.98;62.67;;;17.60;99.90;;;;;;5096017;28;20027;-61
2023/06/09 06:26:13;;;;;;;174.90;57.60;;;17.60;99.90;;;;;;5114697;28;20030;-61
2023/06/09 06:28:39;;;;;;;190.52;60.72;;;17.70;99.90;;;;;;5130215;28;20036;-60
2023/06/09 06:31:05;;;;;;;190.95;60.58;;;17.50;99.90;;;;;;5115101;28;20055;-61
2023/06/09 06:33:31;;;;;;;166.63;58.47;;;17.60;99.90;;;;;;5115042;27;21820;-61
2023/06/09 06:35:58;;;;;;;162.95;56.47;;;17.80;99.90;;;;;;5112350;28;20346;-61
2023/06/09 06:38:24;;;;;;;157.23;55.50;;;18.00;99.90;;;;;;5113193;28;20527;-61
2023/06/09 06:40:53;;;;;;;158.77;55.72;;;18.10;99.90;;;;;;5102523;28;20032;-61
2023/06/09 06:43:19;;;;;;;140.88;52.45;;;18.10;99.90;;;;;;5104705;28;20042;-61
2023/06/09 06:45:58;;;;;;;139.15;50.22;;;18.20;99.90;;;;;;5144563;27;20024;-61
2023/06/09 06:48:27;;;;;;;139.30;49.53;;;18.20;99.90;;;;;;5113424;27;20035;-61
2023/06/09 06:50:53;;;;;;;127.05;49.50;;;18.20;99.90;;;;;;5100467;28;20027;-61
2023/06/09 06:53:19;;;;;;;141.20;51.55;;;18.50;99.90;;;;;;5098799;28;20080;-61
2023/06/09 06:55:45;;;;;;;118.90;48.65;;;18.60;99.90;;;;;;5112137;28;20035;-61
2023/06/09 06:58:11;;;;;;;118.55;47.08;;;18.70;99.90;;;;;;5110668;28;20354;-61
2023/06/09 07:00:37;;;;;;;129.80;50.22;;;18.70;99.90;;;;;;5110009;28;20540;-61
2023/06/09 07:03:04;;;;;;;119.72;48.60;;;18.80;99.90;;;;;;5109155;28;20059;-61
2023/06/09 07:05:30;;;;;;;118.53;49.55;;;19.00;99.90;;;;;;5104216;28;20024;-61
2023/06/09 07:07:56;;;;;;;116.30;49.13;;;19.20;99.90;;;;;;5112592;28;20039;-61
2023/06/09 07:10:22;;;;;;;94.20;43.33;;;19.20;99.90;;;;;;5105181;28;20020;-61
2023/06/09 07:12:49;;;;;;;106.32;50.03;;;18.90;99.90;;;;;;5112383;28;20019;-61
2023/06/09 07:15:15;;;;;;;122.50;52.15;;;19.20;99.90;;;;;;5116966;28;20020;-61
2023/06/09 07:17:44;;;;;;;116.88;45.50;;;19.30;99.90;;;;;;5104239;28;20035;-61
2023/06/09 07:20:10;;;;;;;107.47;45.45;;;19.50;99.90;;;;;;5105574;28;20476;-61
2023/06/09 07:22:42;;;;;;;109.93;48.10;;;19.50;99.90;;;;;;5106948;28;20058;-61
2023/06/09 07:25:09;;;;;;;105.35;44.22;;;19.90;99.90;;;;;;5104476;28;20031;-61
2023/06/09 07:27:35;;;;;;;95.65;43.42;;;20.40;99.90;;;;;;5114091;28;20422;-61
2023/06/09 07:30:05;;;;;;;92.57;42.58;;;20.70;99.90;;;;;;5108584;28;20030;-61
2023/06/09 07:32:33;;;;;;;104.40;44.53;;;20.90;99.90;;;;;;5100209;28;20024;-61
2023/06/09 07:35:00;;;;;;;99.20;43.38;;;21.30;99.90;;;;;;5112552;28;20047;-61
2023/06/09 07:37:26;;;;;;;103.03;46.08;;;21.70;99.90;;;;;;5114122;28;20128;-62
2023/06/09 07:39:52;;;;;;;94.95;42.33;;;22.10;99.90;;;;;;5111154;28;20990;-62
2023/06/09 07:45:53;;;;;;;93.93;41.90;;;22.40;99.90;;;;;;5088704;28;20101;-62
2023/06/09 07:48:19;;;;;;;97.38;43.40;;;22.70;99.90;;;;;;5092567;28;20024;-62
2023/06/09 07:50:45;;;;;;;111.57;44.10;;;23.10;99.90;;;;;;5091542;28;20435;-62
2023/06/09 07:53:12;;;;;;;76.20;36.90;;;23.60;99.90;;;;;;5095256;28;20111;-62
2023/06/09 07:55:38;;;;;;;84.32;39.40;;;23.70;99.90;;;;;;5090216;28;20039;-62
2023/06/09 07:58:05;;;;;;;102.10;42.88;;;23.70;99.90;;;;;;5094671;28;20489;-62
2023/06/09 08:00:31;;;;;;;91.10;39.05;;;24.20;99.90;;;;;;5091391;28;20024;-62
2023/06/09 08:03:02;;;;;;;81.13;37.33;;;24.20;99.90;;;;;;5088330;28;20024;-62
2023/06/09 08:05:29;;;;;;;82.97;38.38;;;24.30;99.90;;;;;;5096435;28;20040;-62
2023/06/09 08:07:56;;;;;;;72.45;36.97;;;24.60;99.90;;;;;;5095815;28;20032;-62
2023/06/09 08:10:22;;;;;;;71.57;35.38;;;24.20;99.90;;;;;;5094874;28;20048;-62
2023/06/09 08:12:52;;;;;;;74.63;35.88;;;24.80;99.90;;;;;;5093897;28;20103;-62
2023/06/09 08:15:18;;;;;;;78.15;36.00;;;25.00;99.90;;;;;;5095598;28;20024;-62
2023/06/09 08:17:44;;;;;;;72.30;35.85;;;25.30;99.90;;;;;;5096130;28;20023;-62
2023/06/09 08:20:10;;;;;;;72.05;34.13;;;24.90;99.90;;;;;;5095553;28;20043;-62
2023/06/09 08:22:36;;;;;;;68.07;33.70;;;25.10;99.90;;;;;;5095309;28;20027;-62
2023/06/09 08:25:03;;;;;;;72.97;35.33;;;25.60;99.90;;;;;;5096297;28;20032;-62
2023/06/09 08:27:29;;;;;;;75.63;36.15;;;25.80;99.90;;;;;;5096052;28;20035;-62
2023/06/09 08:29:55;;;;;;;75.15;35.88;;;25.80;99.90;;;;;;5094768;28;20020;-62
2023/06/09 08:32:21;;;;;;;77.03;35.95;;;25.80;99.90;;;;;;5093546;28;20418;-62
2023/06/09 08:34:47;;;;;;;70.88;34.15;;;26.20;99.90;;;;;;5080086;28;20048;-63
2023/06/09 08:37:15;;;;;;;70.30;34.28;;;26.10;99.90;;;;;;5095466;28;20066;-62
2023/06/09 08:39:41;;;;;;;72.82;34.95;;;26.00;99.90;;;;;;5096300;28;20032;-62
2023/06/09 08:42:15;;;;;;;69.00;33.33;;;26.10;99.90;;;;;;5081545;28;20070;-62
2023/06/09 08:44:45;;;;;;;79.60;34.88;;;25.80;99.90;;;;;;5075816;28;20020;-62
2023/06/09 08:47:13;;;;;;;60.00;28.65;;;25.90;99.90;;;;;;5082763;28;20091;-62
2023/06/09 08:49:40;;;;;;;53.63;27.40;;;26.50;99.90;;;;;;5087881;28;20150;-62
2023/06/09 08:52:06;;;;;;;59.35;28.05;;;26.60;99.90;;;;;;5084484;28;20438;-62
2023/06/09 08:54:32;;;;;;;63.92;31.55;;;26.40;99.90;;;;;;5090999;28;20028;-62
2023/06/09 08:56:59;;;;;;;55.45;29.00;;;27.00;99.90;;;;;;5094672;28;20103;-63
2023/06/09 08:59:30;;;;;;;58.72;30.45;;;27.30;99.90;;;;;;5093954;28;20106;-63
2023/06/09 09:01:57;;;;;;;63.25;32.35;;;27.60;99.90;;;;;;5094203;28;20081;-62
2023/06/09 09:04:26;;;;;;;64.45;30.33;;;27.50;99.90;;;;;;5094463;28;20039;-63
2023/06/09 09:06:56;;;;;;;59.53;30.65;;;27.60;99.90;;;;;;5094465;28;20024;-62
2023/06/09 09:09:22;;;;;;;57.15;28.88;;;27.70;99.90;;;;;;5094375;28;20028;-62
2023/06/09 09:11:56;;;;;;;68.10;33.20;;;27.40;99.90;;;;;;5094406;28;20588;-62
2023/06/09 09:14:23;;;;;;;61.53;28.92;;;27.80;99.90;;;;;;5093378;28;20389;-62
2023/06/09 09:16:49;;;;;;;58.90;29.40;;;28.20;99.90;;;;;;5094406;28;20045;-62
2023/06/09 09:19:24;;;;;;;61.28;30.90;;;28.40;99.90;;;;;;5094576;28;20066;-62
2023/06/09 09:21:50;;;;;;;55.22;29.30;;;28.20;99.90;;;;;;5094625;28;20036;-62
2023/06/09 09:24:16;;;;;;;65.90;32.03;;;28.50;99.90;;;;;;5094494;28;20051;-62
2023/06/09 09:26:43;;;;;;;55.83;27.88;;;28.40;99.90;;;;;;5094518;28;20032;-62
2023/06/09 09:29:09;;;;;;;50.50;27.45;;;28.80;99.90;;;;;;5093681;28;20024;-62
2023/06/09 09:31:42;;;;;;;53.72;27.85;;;28.90;99.90;;;;;;5093955;28;20593;-62
2023/06/09 09:34:13;;;;;;;50.50;27.05;;;29.20;99.90;;;;;;5094211;28;20051;-62
2023/06/09 09:36:43;;;;;;;56.63;26.13;;;29.40;99.90;;;;;;5091954;28;20043;-62
2023/06/09 09:39:09;;;;;;;50.85;25.95;;;28.30;99.90;;;;;;5092433;28;20032;-62
2023/06/09 09:41:35;;;;;;;55.40;28.65;;;27.30;99.90;;;;;;5092850;28;20431;-62
2023/06/09 09:44:01;;;;;;;52.05;26.95;;;28.20;99.90;;;;;;5092497;28;20050;-62
2023/06/09 09:46:34;;;;;;;60.42;31.48;;;28.20;99.90;;;;;;5093196;28;20485;-62
2023/06/09 09:49:01;;;;;;;60.80;29.38;;;28.20;99.90;;;;;;5093994;28;20442;-62
2023/06/09 09:51:31;;;;;;;58.53;28.58;;;28.50;99.90;;;;;;5093808;28;20369;-62
2023/06/09 09:53:58;;;;;;;43.05;25.42;;;28.70;99.90;;;;;;5094477;28;20025;-62
2023/06/09 09:56:25;;;;;;;46.55;23.38;;;29.30;99.90;;;;;;5092652;28;20028;-62
2023/06/09 09:58:53;;;;;;;48.38;24.55;;;29.10;99.90;;;;;;5094317;28;20035;-62
2023/06/09 10:01:24;;;;;;;53.05;25.50;;;29.40;99.90;;;;;;5093744;28;20035;-62
2023/06/09 10:03:53;;;;;;;54.10;26.65;;;29.30;99.90;;;;;;5087211;28;20024;-62
2023/06/09 10:06:29;;;;;;;51.63;28.97;;;30.10;99.90;;;;;;5092910;28;20106;-62
2023/06/09 10:08:58;;;;;;;45.60;23.20;;;30.50;99.90;;;;;;5092167;28;20024;-62
2023/06/09 10:11:30;;;;;;;50.33;24.40;;;31.00;99.90;;;;;;5094377;28;20369;-62
2023/06/09 10:14:00;;;;;;;41.90;22.20;;;31.30;99.90;;;;;;5094124;28;20441;-62
2023/06/09 10:16:27;;;;;;;35.22;18.52;;;30.60;99.90;;;;;;5094291;28;20024;-62
2023/06/09 10:18:53;;;;;;;38.03;19.70;;;30.20;99.90;;;;;;5096698;28;20047;-62
2023/06/09 10:21:21;;;;;;;34.03;18.52;;;29.90;99.90;;;;;;5087515;28;20024;-62
2023/06/09 10:23:47;;;;;;;26.55;15.23;;;29.30;99.90;;;;;;5085143;28;20039;-62
2023/06/09 10:26:14;;;;;;;38.22;18.98;;;27.70;99.90;;;;;;5094332;28;20035;-62
2023/06/09 10:28:40;;;;;;;37.20;16.88;;;28.00;99.90;;;;;;5095916;28;20493;-62
2023/06/09 10:31:11;;;;;;;29.48;16.15;;;29.20;99.90;;;;;;5094003;28;20016;-62
2023/06/09 10:33:42;;;;;;;34.92;17.83;;;29.40;99.90;;;;;;5094271;28;20173;-62
2023/06/09 10:36:10;;;;;;;29.98;15.13;;;30.50;99.90;;;;;;5091883;28;20039;-62
2023/06/09 10:38:53;;;;;;;29.08;16.67;;;30.80;99.90;;;;;;5085029;28;20067;-62
2023/06/09 10:41:28;;;;;;;27.75;15.68;;;31.10;99.90;;;;;;5091041;28;20028;-62
2023/06/09 10:44:18;;;;;;;26.50;15.23;;;31.70;99.90;;;;;;5095212;28;20027;-62
2023/06/09 10:46:48;;;;;;;28.20;15.13;;;30.80;99.90;;;;;;5091133;28;20119;-62
2023/06/09 10:49:36;;;;;;;29.42;15.45;;;31.30;99.90;;;;;;5092190;28;20066;-62
2023/06/09 10:52:45;;;;;;;34.80;16.33;;;31.60;99.90;;;;;;5096244;28;20028;-62
2023/06/09 10:55:12;;;;;;;33.55;16.42;;;30.20;99.90;;;;;;5089559;28;20021;-62
2023/06/09 10:57:39;;;;;;;27.23;15.02;;;30.40;99.90;;;;;;5097919;28;20035;-62
2023/06/09 11:00:11;;;;;;;24.88;13.85;;;30.50;99.90;;;;;;5096940;28;20049;-62
2023/06/09 11:02:45;;;;;;;23.58;13.38;;;30.00;99.90;;;;;;5096262;28;20492;-62
2023/06/09 11:05:12;;;;;;;26.17;12.38;;;30.80;99.90;;;;;;5094441;28;20497;-62
2023/06/09 11:07:49;;;;;;;28.75;14.20;;;30.70;99.90;;;;;;5096606;28;20063;-62
2023/06/09 11:10:21;;;;;;;25.85;13.73;;;31.40;99.90;;;;;;5095719;28;20033;-62
2023/06/09 11:12:49;;;;;;;27.33;13.30;;;31.60;99.90;;;;;;5097193;28;20035;-62
2023/06/09 11:15:16;;;;;;;28.40;14.55;;;31.60;99.90;;;;;;5096924;28;20077;-62
2023/06/09 11:17:44;;;;;;;29.88;13.80;;;31.60;99.90;;;;;;5096357;28;20036;-62
2023/06/09 11:20:10;;;;;;;22.73;12.90;;;31.20;99.90;;;;;;5096640;28;20124;-62
2023/06/09 11:22:42;;;;;;;31.95;13.93;;;31.40;99.90;;;;;;5097215;28;20028;-62
2023/06/09 11:25:30;;;;;;;29.60;13.82;;;31.90;99.90;;;;;;5094059;28;20119;-62
2023/06/09 11:27:55;;;;;;;46.33;16.83;;;31.70;99.90;;;;;;5076641;28;20029;-62
2023/06/09 11:30:23;;;;;;;38.58;14.93;;;31.20;99.90;;;;;;5089955;28;20586;-62
2023/06/09 11:33:04;;;;;;;31.90;16.50;;;31.60;99.90;;;;;;5092483;28;20076;-62
2023/06/09 11:35:30;;;;;;;31.52;16.63;;;31.70;99.90;;;;;;5095424;28;20028;-62
2023/06/09 11:38:00;;;;;;;31.80;17.27;;;31.80;99.90;;;;;;5096670;28;20080;-62
2023/06/09 11:40:28;;;;;;;29.20;16.10;;;32.20;99.90;;;;;;5093881;28;20032;-62
2023/06/09 11:43:02;;;;;;;29.30;15.73;;;32.50;99.90;;;;;;5096356;28;20085;-62
2023/06/09 11:45:31;;;;;;;33.03;16.40;;;31.10;99.90;;;;;;5096546;28;20024;-62
2023/06/09 11:48:03;;;;;;;37.42;18.10;;;30.80;99.90;;;;;;5096212;28;20058;-62
2023/06/09 11:50:42;;;;;;;31.48;15.52;;;31.30;99.90;;;;;;5078887;28;20068;-62
2023/06/09 11:53:10;;;;;;;33.83;15.73;;;31.60;99.90;;;;;;5096492;28;20107;-62
2023/06/09 11:55:36;;;;;;;23.52;14.02;;;31.70;99.90;;;;;;5095538;28;20024;-62
2023/06/09 11:58:04;;;;;;;27.08;14.60;;;31.60;99.90;;;;;;5096671;28;20039;-62
2023/06/09 12:00:32;;;;;;;25.45;14.60;;;32.20;99.90;;;;;;5096115;28;20034;-62
2023/06/09 12:02:59;;;;;;;21.90;13.68;;;32.30;99.90;;;;;;5085900;28;20028;-62
2023/06/09 12:05:28;;;;;;;22.05;14.07;;;32.40;99.90;;;;;;5076218;28;20025;-62
2023/06/09 12:07:55;;;;;;;24.42;14.82;;;32.60;99.90;;;;;;5076317;28;20028;-62
2023/06/09 12:10:24;;;;;;;19.55;10.07;;;32.70;99.90;;;;;;5085821;28;20028;-62
2023/06/09 12:12:52;;;;;;;19.40;10.93;;;32.40;99.90;;;;;;5095714;28;20031;-62
2023/06/09 12:15:20;;;;;;;20.27;11.15;;;32.40;99.90;;;;;;5096256;28;20109;-62
2023/06/09 12:17:48;;;;;;;16.85;9.75;;;31.70;99.90;;;;;;5095391;28;20028;-62
2023/06/09 12:20:28;;;;;;;13.73;9.35;;;31.80;99.90;;;;;;5096228;28;20030;-62
2023/06/09 12:23:00;;;;;;;11.30;8.57;;;32.20;99.90;;;;;;5096342;28;20031;-62
2023/06/09 12:25:30;;;;;;;11.00;7.32;;;32.30;99.90;;;;;;5096023;28;20107;-62
2023/06/09 12:28:17;;;;;;;9.18;7.35;;;31.70;99.90;;;;;;5095179;28;20273;-63
2023/06/09 12:30:48;;;;;;;13.05;7.90;;;30.80;99.90;;;;;;5095212;28;20030;-63
2023/06/09 12:33:18;;;;;;;10.65;7.60;;;30.50;99.90;;;;;;5095086;28;20084;-63
2023/06/09 12:35:47;;;;;;;10.18;7.95;;;30.20;99.90;;;;;;5095562;28;20031;-63